Time;durP1;ratioP1;P1;durP2;ratioP2;P2;SDS_P1;SDS_P2;PMS_P1;PMS_P2;Temp;Humidity;BMP_temperature;BMP_pressure;BME280_temperature;BME280_humidity;BME280_pressure;Samples;Min_cycle;Max_cycle;Signal;HPM_P1;HPM_P2
2021/01/12 00:00:16;;;;;;;45.20;15.73;;;-0.80;81.40;;;;;;5056340;28;20188;-70
2021/01/12 00:02:42;;;;;;;27.15;14.13;;;-0.70;81.20;;;;;;5060311;28;20936;-70
2021/01/12 00:05:08;;;;;;;32.80;14.93;;;-0.70;80.60;;;;;;5067824;28;20279;-72
2021/01/12 00:07:34;;;;;;;32.58;14.55;;;-0.60;80.50;;;;;;5072283;28;20188;-72
2021/01/12 00:10:00;;;;;;;31.83;14.27;;;-0.60;80.00;;;;;;5072953;28;20591;-71
2021/01/12 00:12:26;;;;;;;30.65;13.98;;;-0.60;80.00;;;;;;5076153;28;20194;-71
2021/01/12 00:14:52;;;;;;;32.53;14.10;;;-0.60;79.60;;;;;;5051301;28;20220;-71
2021/01/12 00:17:18;;;;;;;35.70;15.10;;;-0.60;79.50;;;;;;5062568;28;20223;-70
2021/01/12 00:19:44;;;;;;;30.85;13.63;;;-0.70;80.00;;;;;;5071673;28;20290;-71
2021/01/12 00:22:15;;;;;;;27.10;12.70;;;-0.60;80.20;;;;;;5072397;28;20287;-71
2021/01/12 00:24:42;;;;;;;27.80;12.82;;;-0.60;80.00;;;;;;5069765;28;20585;-70
2021/01/12 00:27:08;;;;;;;25.80;12.65;;;-0.60;79.70;;;;;;5066376;28;20659;-72
2021/01/12 00:29:34;;;;;;;26.03;13.70;;;-0.60;80.00;;;;;;5051489;28;20231;-72
2021/01/12 00:31:59;;;;;;;34.40;15.68;;;-0.50;79.70;;;;;;5064442;28;20191;-71
2021/01/12 00:34:25;;;;;;;33.33;15.00;;;-0.60;79.60;;;;;;5066582;28;21019;-71
2021/01/12 00:36:52;;;;;;;27.93;14.37;;;-0.60;79.60;;;;;;5051368;28;20192;-71
2021/01/12 00:39:21;;;;;;;38.92;14.70;;;-0.60;80.20;;;;;;5049635;28;20204;-71
2021/01/12 00:41:57;;;;;;;30.88;14.02;;;-0.60;80.50;;;;;;5067507;28;20230;-71
2021/01/12 00:44:26;;;;;;;28.40;14.20;;;-0.60;80.50;;;;;;5059603;28;20275;-70
2021/01/12 00:46:53;;;;;;;33.72;14.70;;;-0.60;80.50;;;;;;5061884;28;20686;-71
2021/01/12 00:49:21;;;;;;;29.63;14.38;;;-0.60;80.60;;;;;;5051622;28;20651;-71
2021/01/12 00:51:47;;;;;;;29.00;12.75;;;-0.50;80.80;;;;;;5052648;28;20192;-71
2021/01/12 00:54:15;;;;;;;26.35;12.57;;;-0.50;80.60;;;;;;5064216;28;20577;-71
2021/01/12 00:56:41;;;;;;;30.70;14.20;;;-0.40;80.20;;;;;;5062639;28;20181;-72
2021/01/12 00:59:07;;;;;;;33.10;14.87;;;-0.40;80.00;;;;;;5052848;28;20219;-71
2021/01/12 01:01:33;;;;;;;27.48;12.52;;;-0.30;79.70;;;;;;5053408;28;20427;-72
2021/01/12 01:03:59;;;;;;;28.17;11.88;;;-0.20;79.60;;;;;;5050403;28;20298;-71
2021/01/12 01:06:26;;;;;;;31.48;14.23;;;-0.20;79.30;;;;;;5058192;28;20211;-71
2021/01/12 01:08:52;;;;;;;32.55;15.00;;;-0.10;79.00;;;;;;5058203;28;20223;-71
2021/01/12 01:11:18;;;;;;;30.75;13.48;;;-0.10;78.70;;;;;;5051144;28;20220;-70
2021/01/12 01:13:45;;;;;;;25.85;12.77;;;-0.10;78.70;;;;;;5051046;28;20656;-70
2021/01/12 01:16:11;;;;;;;24.55;11.82;;;-0.10;78.60;;;;;;5054815;28;20358;-70
2021/01/12 01:18:37;;;;;;;25.03;11.67;;;0.00;78.60;;;;;;5069346;28;20322;-71
2021/01/12 01:21:03;;;;;;;23.88;12.38;;;0.00;78.40;;;;;;5067457;28;20419;-70
2021/01/12 01:23:29;;;;;;;25.53;11.60;;;0.10;78.60;;;;;;5049818;28;20214;-71
2021/01/12 01:25:55;;;;;;;24.30;11.77;;;0.10;78.60;;;;;;5049893;28;20450;-72
2021/01/12 01:28:22;;;;;;;28.05;11.38;;;0.20;78.60;;;;;;5049656;28;20193;-71
2021/01/12 01:30:49;;;;;;;22.58;9.85;;;0.20;78.40;;;;;;5062662;28;20191;-71
2021/01/12 01:33:15;;;;;;;23.48;10.90;;;0.20;78.70;;;;;;5069257;28;20204;-72
2021/01/12 01:35:44;;;;;;;23.92;10.95;;;0.30;78.70;;;;;;5069779;28;20775;-71
2021/01/12 01:38:10;;;;;;;28.30;12.32;;;0.30;78.30;;;;;;5069378;28;20240;-71
2021/01/12 01:40:36;;;;;;;23.35;10.00;;;0.30;78.00;;;;;;5057354;28;20177;-70
2021/01/12 01:43:02;;;;;;;24.50;10.87;;;0.40;78.30;;;;;;5052027;28;21120;-71
2021/01/12 01:45:28;;;;;;;22.67;10.15;;;0.40;78.30;;;;;;5048208;28;20621;-71
2021/01/12 01:47:53;;;;;;;22.93;10.57;;;0.40;78.40;;;;;;5050396;28;20179;-71
2021/01/12 01:50:21;;;;;;;23.30;10.30;;;0.50;78.40;;;;;;5063841;28;20184;-71
2021/01/12 01:52:55;;;;;;;22.52;10.75;;;0.40;78.40;;;;;;5071000;28;20180;-72
2021/01/12 01:55:22;;;;;;;24.20;10.98;;;0.50;78.60;;;;;;5069002;28;20658;-70
2021/01/12 01:57:48;;;;;;;22.98;9.45;;;0.50;78.60;;;;;;5051402;28;20231;-70
2021/01/12 02:00:16;;;;;;;22.13;10.20;;;0.60;78.70;;;;;;5052440;28;20212;-70
2021/01/12 02:02:51;;;;;;;19.27;9.65;;;0.60;78.70;;;;;;5050697;28;20193;-70
2021/01/12 02:05:20;;;;;;;18.70;9.20;;;0.60;78.90;;;;;;5045844;28;20270;-71
2021/01/12 02:07:47;;;;;;;21.42;9.40;;;0.60;79.00;;;;;;5050013;28;20642;-71
2021/01/12 02:10:18;;;;;;;23.70;9.10;;;0.60;79.00;;;;;;5049457;28;20192;-72
2021/01/12 02:12:59;;;;;;;21.90;9.98;;;0.60;78.70;;;;;;5049992;28;20185;-72
2021/01/12 02:15:26;;;;;;;22.15;8.70;;;0.50;78.60;;;;;;5041268;28;20211;-70
2021/01/12 02:17:53;;;;;;;18.20;8.27;;;0.50;79.60;;;;;;5056129;28;20184;-70
2021/01/12 02:20:22;;;;;;;16.65;8.25;;;0.60;79.50;;;;;;5057303;28;20188;-72
2021/01/12 02:23:06;;;;;;;17.17;7.93;;;0.70;79.60;;;;;;5055276;28;20177;-71
2021/01/12 02:25:37;;;;;;;17.50;7.25;;;0.60;78.90;;;;;;5059472;28;20318;-71
2021/01/12 02:28:06;;;;;;;18.58;9.15;;;0.60;78.90;;;;;;5064268;28;20193;-71
2021/01/12 02:30:32;;;;;;;19.02;8.10;;;0.60;79.00;;;;;;5049760;28;20647;-70
2021/01/12 02:32:58;;;;;;;23.63;9.43;;;0.60;79.30;;;;;;5054872;28;20286;-71
2021/01/12 02:35:26;;;;;;;22.00;8.10;;;0.60;79.50;;;;;;5056484;28;20211;-71
2021/01/12 02:37:52;;;;;;;14.07;6.18;;;0.60;79.90;;;;;;5062812;28;20194;-70
2021/01/12 02:40:17;;;;;;;15.23;7.68;;;0.60;79.70;;;;;;5048983;28;20188;-70
2021/01/12 02:42:44;;;;;;;15.27;7.23;;;0.60;80.00;;;;;;5049448;28;20267;-71
2021/01/12 02:45:11;;;;;;;18.20;8.32;;;0.60;79.90;;;;;;5048654;28;20275;-71
2021/01/12 02:47:37;;;;;;;16.27;7.50;;;0.60;79.90;;;;;;5060407;28;20227;-71
2021/01/12 02:50:07;;;;;;;17.20;6.67;;;0.60;80.00;;;;;;5048962;28;20219;-72
2021/01/12 02:52:33;;;;;;;11.20;6.15;;;0.70;79.90;;;;;;5062622;28;20666;-71
2021/01/12 02:54:59;;;;;;;14.30;7.07;;;0.80;79.70;;;;;;5048128;28;20204;-71
2021/01/12 02:57:25;;;;;;;14.13;7.30;;;0.80;79.30;;;;;;5061483;28;20836;-71
2021/01/12 02:59:51;;;;;;;13.27;6.73;;;0.80;78.90;;;;;;5048671;28;20211;-71
2021/01/12 03:02:17;;;;;;;20.37;8.07;;;0.80;79.00;;;;;;5047447;28;20807;-70
2021/01/12 03:04:42;;;;;;;14.33;7.43;;;0.80;79.20;;;;;;5047797;28;20204;-71
2021/01/12 03:07:08;;;;;;;15.63;7.80;;;0.90;78.90;;;;;;5049107;28;20184;-70
2021/01/12 03:09:34;;;;;;;14.30;7.10;;;1.00;79.30;;;;;;5047581;28;20299;-71
2021/01/12 03:12:00;;;;;;;14.90;7.93;;;1.00;78.60;;;;;;5047441;28;20196;-70
2021/01/12 03:14:26;;;;;;;15.43;7.07;;;1.00;78.60;;;;;;5048018;28;20212;-70
2021/01/12 03:16:52;;;;;;;12.80;6.88;;;1.10;78.10;;;;;;5048942;28;20188;-71
2021/01/12 03:19:18;;;;;;;15.20;7.27;;;1.00;78.00;;;;;;5060332;28;20210;-71
2021/01/12 03:21:44;;;;;;;12.95;6.72;;;1.00;78.10;;;;;;5074216;28;20270;-70
2021/01/12 03:24:10;;;;;;;16.57;7.57;;;1.00;78.40;;;;;;5062338;28;20228;-71
2021/01/12 03:26:36;;;;;;;14.80;7.53;;;1.00;78.60;;;;;;5051492;28;20423;-71
2021/01/12 03:29:02;;;;;;;13.63;6.70;;;1.00;78.70;;;;;;5052865;28;20189;-70
2021/01/12 03:31:28;;;;;;;14.27;7.57;;;1.00;78.30;;;;;;5061388;28;20558;-71
2021/01/12 03:33:54;;;;;;;19.47;7.40;;;1.00;78.60;;;;;;5060090;28;20191;-71
2021/01/12 03:36:20;;;;;;;13.00;6.20;;;1.10;78.90;;;;;;5049651;28;21529;-71
2021/01/12 03:38:46;;;;;;;14.70;6.80;;;1.10;79.00;;;;;;5049083;28;20212;-71
2021/01/12 03:41:11;;;;;;;12.90;7.50;;;1.10;79.00;;;;;;5049500;28;20424;-72
2021/01/12 03:43:37;;;;;;;17.47;6.80;;;1.10;79.20;;;;;;5061325;28;20248;-71
2021/01/12 03:46:03;;;;;;;11.00;6.60;;;1.10;79.30;;;;;;5063875;28;20210;-72
2021/01/12 03:48:29;;;;;;;17.73;7.77;;;1.10;79.20;;;;;;5050107;28;20223;-72
2021/01/12 03:50:54;;;;;;;13.03;6.23;;;1.10;79.30;;;;;;5068833;28;20426;-71
2021/01/12 03:53:20;;;;;;;13.23;6.50;;;1.10;79.70;;;;;;5059103;28;20177;-71
2021/01/12 03:55:46;;;;;;;14.10;7.07;;;1.10;80.30;;;;;;5050716;28;20252;-70
2021/01/12 03:58:12;;;;;;;13.27;6.43;;;1.00;80.80;;;;;;5049401;28;20200;-71
2021/01/12 04:00:38;;;;;;;14.27;6.97;;;1.10;81.20;;;;;;5048155;28;20189;-70
2021/01/12 04:03:03;;;;;;;16.47;6.43;;;1.10;81.20;;;;;;5049982;28;20651;-71
2021/01/12 04:05:29;;;;;;;13.17;6.50;;;1.10;81.50;;;;;;5067586;28;20442;-71
2021/01/12 04:07:56;;;;;;;14.07;6.13;;;1.10;81.70;;;;;;5069522;28;20425;-70
2021/01/12 04:10:22;;;;;;;17.60;7.30;;;1.10;81.50;;;;;;5069816;28;20569;-71
2021/01/12 04:12:48;;;;;;;11.03;6.03;;;1.20;81.20;;;;;;5072185;28;20190;-72
2021/01/12 04:15:14;;;;;;;18.77;6.60;;;1.10;81.20;;;;;;5063958;28;20508;-72
2021/01/12 04:17:39;;;;;;;11.77;6.55;;;1.10;81.40;;;;;;5051105;28;20446;-72
2021/01/12 04:20:06;;;;;;;15.10;6.63;;;1.20;81.70;;;;;;5066580;28;20235;-71
2021/01/12 04:22:32;;;;;;;13.18;6.55;;;1.20;81.80;;;;;;5061949;28;20719;-73
2021/01/12 04:24:58;;;;;;;13.07;6.47;;;1.30;81.80;;;;;;5069505;28;20232;-72
2021/01/12 04:27:23;;;;;;;12.03;6.03;;;1.30;82.10;;;;;;5070762;28;20669;-71
2021/01/12 04:29:49;;;;;;;14.90;6.60;;;1.30;82.10;;;;;;5057379;28;20194;-72
2021/01/12 04:32:15;;;;;;;14.50;7.03;;;1.30;82.20;;;;;;5065137;28;20196;-71
2021/01/12 04:34:40;;;;;;;14.70;6.40;;;1.30;82.40;;;;;;5056207;28;20227;-73
2021/01/12 04:37:06;;;;;;;11.80;6.70;;;1.30;82.20;;;;;;5058914;28;20184;-71
2021/01/12 04:39:32;;;;;;;13.10;6.70;;;1.30;82.50;;;;;;5068591;28;20212;-73
2021/01/12 04:42:00;;;;;;;16.27;7.23;;;1.30;82.20;;;;;;5052054;28;20655;-71
2021/01/12 04:44:26;;;;;;;13.63;6.82;;;1.30;81.90;;;;;;5057526;28;20294;-72
2021/01/12 04:46:52;;;;;;;16.20;6.87;;;1.30;82.10;;;;;;5073185;28;20286;-70
2021/01/12 04:49:17;;;;;;;12.87;7.23;;;1.30;82.10;;;;;;5057869;28;20395;-71
2021/01/12 04:51:44;;;;;;;13.70;7.17;;;1.30;82.20;;;;;;5065300;28;20559;-70
2021/01/12 04:54:10;;;;;;;16.67;7.28;;;1.30;82.20;;;;;;5071808;28;20195;-70
2021/01/12 04:56:36;;;;;;;11.80;6.60;;;1.30;82.40;;;;;;5072052;28;20194;-71
2021/01/12 04:59:02;;;;;;;12.77;6.30;;;1.40;81.90;;;;;;5053128;28;20227;-72
2021/01/12 05:01:29;;;;;;;16.15;7.35;;;1.40;81.70;;;;;;5052324;28;20447;-72
2021/01/12 05:03:55;;;;;;;14.30;6.63;;;1.40;81.80;;;;;;5050758;28;20187;-71
2021/01/12 05:06:23;;;;;;;19.83;7.83;;;1.30;81.90;;;;;;5051639;28;20180;-71
2021/01/12 05:08:56;;;;;;;16.05;7.80;;;1.30;81.80;;;;;;5071847;28;20963;-71
2021/01/12 05:11:33;;;;;;;16.98;6.85;;;1.30;82.10;;;;;;5057393;28;20250;-71
2021/01/12 05:14:05;;;;;;;19.08;7.90;;;1.30;82.20;;;;;;5071039;28;20187;-70
2021/01/12 05:16:31;;;;;;;16.42;7.13;;;1.30;82.50;;;;;;5058403;28;20184;-71
2021/01/12 05:18:58;;;;;;;17.23;8.30;;;1.30;82.70;;;;;;5071761;28;20580;-70
2021/01/12 05:21:25;;;;;;;16.15;7.65;;;1.30;82.50;;;;;;5072025;28;20238;-72
2021/01/12 05:24:21;;;;;;;18.85;7.78;;;1.20;82.80;;;;;;5061578;28;20196;-73
2021/01/12 05:26:47;;;;;;;14.80;7.70;;;1.20;83.30;;;;;;5050717;28;20200;-71
2021/01/12 05:29:14;;;;;;;13.55;7.25;;;1.10;83.60;;;;;;5052844;28;20180;-71
2021/01/12 05:31:44;;;;;;;14.75;8.00;;;1.20;83.80;;;;;;5066163;28;20207;-70
2021/01/12 05:34:10;;;;;;;18.27;7.85;;;1.10;84.10;;;;;;5068942;28;20242;-70
2021/01/12 05:36:50;;;;;;;14.98;7.75;;;1.10;84.30;;;;;;5070762;28;20211;-70
2021/01/12 05:39:24;;;;;;;17.13;8.23;;;1.10;84.90;;;;;;5052930;28;20211;-71
2021/01/12 05:41:52;;;;;;;13.35;6.90;;;1.10;85.20;;;;;;5050775;28;20180;-71
2021/01/12 05:44:23;;;;;;;15.93;6.70;;;1.20;85.30;;;;;;5063904;28;20207;-71
2021/01/12 05:46:51;;;;;;;16.15;7.68;;;1.20;85.60;;;;;;5051682;28;20177;-70
2021/01/12 05:49:23;;;;;;;13.95;7.47;;;1.20;85.70;;;;;;5049191;28;20236;-71
2021/01/12 05:51:51;;;;;;;12.05;6.32;;;1.30;86.00;;;;;;5063616;28;20179;-72
2021/01/12 05:54:31;;;;;;;14.68;6.70;;;1.30;86.00;;;;;;5069512;28;20262;-73
2021/01/12 05:57:01;;;;;;;15.93;7.80;;;1.40;86.20;;;;;;5055965;28;20188;-71
2021/01/12 05:59:29;;;;;;;12.07;6.00;;;1.40;86.00;;;;;;5050329;28;20204;-73
2021/01/12 06:01:56;;;;;;;20.92;7.88;;;1.40;86.30;;;;;;5064955;28;20176;-72
2021/01/12 06:04:24;;;;;;;11.45;6.22;;;1.40;86.30;;;;;;5049505;28;20240;-72
2021/01/12 06:06:52;;;;;;;13.55;6.88;;;1.50;86.50;;;;;;5051964;28;20176;-72
2021/01/12 06:09:20;;;;;;;13.40;6.50;;;1.50;86.60;;;;;;5052413;28;20184;-72
2021/01/12 06:11:48;;;;;;;14.40;5.63;;;1.50;86.90;;;;;;5050327;28;20188;-72
2021/01/12 06:14:23;;;;;;;9.82;6.25;;;1.60;87.00;;;;;;5050815;28;20212;-71
2021/01/12 06:16:50;;;;;;;13.07;6.18;;;1.70;87.00;;;;;;5071790;28;20190;-74
2021/01/12 06:19:23;;;;;;;14.10;5.82;;;1.70;87.00;;;;;;5059893;28;20238;-73
2021/01/12 06:21:54;;;;;;;15.43;6.40;;;1.70;86.90;;;;;;5045843;28;20190;-73
2021/01/12 06:24:35;;;;;;;16.58;6.85;;;1.70;86.90;;;;;;5057334;28;20196;-73
2021/01/12 06:27:13;;;;;;;12.88;6.90;;;1.60;86.80;;;;;;5052094;28;20181;-72
2021/01/12 06:29:47;;;;;;;13.50;7.03;;;1.60;86.80;;;;;;5050358;28;20192;-72
2021/01/12 06:32:16;;;;;;;16.17;6.30;;;1.60;86.50;;;;;;5051817;28;20188;-73
2021/01/12 06:34:43;;;;;;;14.65;7.00;;;1.60;86.50;;;;;;5069495;28;20686;-72
2021/01/12 06:37:11;;;;;;;12.57;6.10;;;1.60;86.80;;;;;;5065385;28;20218;-73
2021/01/12 06:39:49;;;;;;;12.75;5.97;;;1.60;87.00;;;;;;5065265;28;20492;-73
2021/01/12 06:42:19;;;;;;;16.05;6.82;;;1.60;87.00;;;;;;5054704;28;20569;-74
2021/01/12 06:44:51;;;;;;;9.70;5.75;;;1.60;87.00;;;;;;5058998;28;20196;-73
2021/01/12 06:47:20;;;;;;;9.82;5.90;;;1.60;86.90;;;;;;5070057;28;21809;-73
2021/01/12 06:49:46;;;;;;;10.60;5.18;;;1.60;86.90;;;;;;5069301;28;20256;-74
2021/01/12 06:52:14;;;;;;;18.70;7.38;;;1.60;86.90;;;;;;5054995;28;20189;-74
2021/01/12 06:54:44;;;;;;;10.13;6.22;;;1.60;86.50;;;;;;5050174;28;20222;-72
2021/01/12 06:57:15;;;;;;;13.75;6.28;;;1.60;86.80;;;;;;5052572;28;20187;-74
2021/01/12 06:59:41;;;;;;;10.85;5.68;;;1.70;86.30;;;;;;5056147;28;20207;-74
2021/01/12 07:02:27;;;;;;;11.27;7.10;;;1.70;86.30;;;;;;5049975;28;20181;-75
2021/01/12 07:05:05;;;;;;;13.85;7.03;;;1.70;86.50;;;;;;5060980;28;20215;-74
2021/01/12 07:07:50;;;;;;;11.23;5.47;;;1.70;86.30;;;;;;5070478;28;20171;-74
2021/01/12 07:10:19;;;;;;;13.48;6.18;;;1.80;86.30;;;;;;5069061;28;20198;-73
2021/01/12 07:12:45;;;;;;;11.85;5.50;;;1.80;86.30;;;;;;5061548;28;20211;-74
2021/01/12 07:15:12;;;;;;;11.68;6.35;;;1.80;86.30;;;;;;5050719;28;20279;-73
2021/01/12 07:17:43;;;;;;;13.15;6.03;;;1.90;86.50;;;;;;5050166;28;20583;-73
2021/01/12 07:20:18;;;;;;;13.07;6.85;;;1.90;86.50;;;;;;5054525;28;20204;-72
2021/01/12 07:22:56;;;;;;;9.88;5.30;;;1.90;86.60;;;;;;5050520;28;20646;-74
2021/01/12 07:25:27;;;;;;;14.95;5.35;;;1.90;86.50;;;;;;5053701;28;20743;-72
2021/01/12 07:28:05;;;;;;;9.93;5.50;;;2.00;86.60;;;;;;5057659;28;20190;-73
2021/01/12 07:30:32;;;;;;;10.70;5.10;;;2.00;87.00;;;;;;5049786;28;20176;-73
2021/01/12 07:33:08;;;;;;;16.60;5.90;;;2.00;87.10;;;;;;5054477;28;20201;-72
2021/01/12 07:35:36;;;;;;;10.95;5.07;;;1.90;87.40;;;;;;5070250;28;20586;-74
2021/01/12 07:38:03;;;;;;;12.52;5.90;;;2.00;88.00;;;;;;5042136;28;20290;-73
2021/01/12 07:40:29;;;;;;;12.25;6.63;;;2.00;88.10;;;;;;5069882;28;20184;-73
2021/01/12 07:43:00;;;;;;;10.43;5.82;;;2.00;88.30;;;;;;5054183;28;20184;-72
2021/01/12 07:45:31;;;;;;;13.50;6.00;;;2.00;88.60;;;;;;5054202;28;20204;-73
2021/01/12 07:47:59;;;;;;;12.00;6.20;;;2.10;88.70;;;;;;5039659;28;20275;-72
2021/01/12 07:50:27;;;;;;;9.10;5.45;;;2.10;88.70;;;;;;5053643;28;20185;-74
2021/01/12 07:52:55;;;;;;;13.23;6.20;;;2.10;88.90;;;;;;5051759;28;20271;-73
2021/01/12 07:55:21;;;;;;;14.30;6.10;;;2.10;88.90;;;;;;5051302;28;20200;-74
2021/01/12 07:57:48;;;;;;;9.68;4.93;;;2.20;89.00;;;;;;5052875;28;20187;-74
2021/01/12 08:00:15;;;;;;;13.15;5.70;;;2.20;89.00;;;;;;5051427;28;20216;-74
2021/01/12 08:02:44;;;;;;;13.02;5.78;;;2.20;89.00;;;;;;5054783;28;20175;-73
2021/01/12 08:05:12;;;;;;;12.90;5.53;;;2.30;88.70;;;;;;5055164;28;20754;-74
2021/01/12 08:07:38;;;;;;;11.93;5.15;;;2.30;88.60;;;;;;5052506;28;20189;-73
2021/01/12 08:10:05;;;;;;;11.50;5.70;;;2.30;88.60;;;;;;5052947;28;20245;-71
2021/01/12 08:12:31;;;;;;;15.45;5.80;;;2.30;88.60;;;;;;5069679;28;20215;-72
2021/01/12 08:15:08;;;;;;;11.10;5.93;;;2.30;88.60;;;;;;5057312;28;20228;-72
2021/01/12 08:17:35;;;;;;;12.00;5.05;;;2.40;88.60;;;;;;5063612;28;20423;-73
2021/01/12 08:20:05;;;;;;;12.02;5.10;;;2.40;88.60;;;;;;5053994;28;20280;-73
2021/01/12 08:22:30;;;;;;;15.07;6.00;;;2.40;88.60;;;;;;5053439;28;20184;-74
2021/01/12 08:25:06;;;;;;;13.20;5.60;;;2.40;88.70;;;;;;5066094;28;20227;-74
2021/01/12 08:27:33;;;;;;;13.13;5.50;;;2.40;89.00;;;;;;5051901;28;20199;-74
2021/01/12 08:30:09;;;;;;;11.90;6.03;;;2.40;89.20;;;;;;5053387;28;20367;-75
2021/01/12 08:32:44;;;;;;;10.27;4.65;;;2.40;89.50;;;;;;5051990;28;20594;-73
2021/01/12 08:35:12;;;;;;;11.38;5.65;;;2.50;89.70;;;;;;5052028;28;20215;-74
2021/01/12 08:37:41;;;;;;;10.77;5.20;;;2.50;90.10;;;;;;5053598;28;20197;-74
2021/01/12 08:40:08;;;;;;;8.07;4.53;;;2.50;90.20;;;;;;5053323;28;20204;-74
2021/01/12 08:42:39;;;;;;;8.32;4.28;;;2.60;90.30;;;;;;5053131;28;20248;-73
2021/01/12 08:45:13;;;;;;;9.55;4.15;;;2.60;90.50;;;;;;5052426;28;20566;-73
2021/01/12 08:47:39;;;;;;;11.18;4.75;;;2.70;90.60;;;;;;5052842;28;20177;-73
2021/01/12 08:50:07;;;;;;;8.30;4.60;;;2.70;90.70;;;;;;5052837;28;20551;-72
2021/01/12 08:52:33;;;;;;;10.73;4.55;;;2.70;90.70;;;;;;5058684;28;20450;-75
2021/01/12 08:55:00;;;;;;;6.25;3.38;;;2.70;90.80;;;;;;5072808;28;20208;-72
2021/01/12 08:57:26;;;;;;;7.63;3.75;;;2.80;90.80;;;;;;5057220;28;20203;-74
2021/01/12 08:59:52;;;;;;;5.00;3.50;;;2.80;90.90;;;;;;5060991;28;20196;-72
2021/01/12 09:02:21;;;;;;;8.43;3.67;;;2.80;90.90;;;;;;5053910;28;20522;-72
2021/01/12 09:04:59;;;;;;;4.50;3.08;;;2.80;90.90;;;;;;5051769;28;20205;-73
2021/01/12 09:07:25;;;;;;;6.03;3.30;;;2.90;90.80;;;;;;5040245;28;20195;-73
2021/01/12 09:09:54;;;;;;;8.73;3.83;;;2.90;90.80;;;;;;5055632;28;20548;-72
2021/01/12 09:12:20;;;;;;;8.43;4.00;;;2.90;91.00;;;;;;5072714;28;20191;-73
2021/01/12 09:14:48;;;;;;;7.40;3.72;;;3.00;91.00;;;;;;5056427;28;20699;-73
2021/01/12 09:17:18;;;;;;;7.82;4.13;;;3.00;91.10;;;;;;5039616;28;20184;-73
2021/01/12 09:19:49;;;;;;;5.93;3.13;;;3.00;91.10;;;;;;5050728;28;20219;-74
2021/01/12 09:22:18;;;;;;;4.03;2.77;;;3.00;91.20;;;;;;5063822;28;20481;-74
2021/01/12 09:24:54;;;;;;;6.30;3.50;;;3.00;91.30;;;;;;5051307;28;20538;-73
2021/01/12 09:27:23;;;;;;;6.30;3.17;;;3.00;91.50;;;;;;5061586;28;20198;-73
2021/01/12 09:29:49;;;;;;;8.73;3.70;;;3.00;91.80;;;;;;5051400;28;20326;-72
2021/01/12 09:32:37;;;;;;;4.85;3.30;;;3.00;92.00;;;;;;5051786;28;20678;-73
2021/01/12 09:35:05;;;;;;;4.45;3.00;;;3.00;92.20;;;;;;5037750;28;20701;-73
2021/01/12 09:37:31;;;;;;;7.43;3.45;;;3.00;92.20;;;;;;5051538;28;20181;-73
2021/01/12 09:40:00;;;;;;;5.50;2.80;;;3.00;92.40;;;;;;5058370;28;20212;-72
2021/01/12 09:42:28;;;;;;;4.85;3.10;;;3.00;92.40;;;;;;5069944;28;20508;-72
2021/01/12 09:44:55;;;;;;;5.75;2.65;;;3.10;92.50;;;;;;5058604;28;20208;-73
2021/01/12 09:47:22;;;;;;;4.93;2.53;;;3.10;92.60;;;;;;5057835;28;20210;-74
2021/01/12 09:49:48;;;;;;;5.13;2.50;;;3.10;92.70;;;;;;5071462;28;20184;-72
2021/01/12 09:52:16;;;;;;;3.65;2.25;;;3.10;92.80;;;;;;5071650;28;20270;-73
2021/01/12 09:54:45;;;;;;;3.40;1.90;;;3.10;93.20;;;;;;5061986;28;20213;-73
2021/01/12 09:57:14;;;;;;;3.35;1.80;;;3.10;93.70;;;;;;5051040;28;20180;-75
2021/01/12 09:59:41;;;;;;;4.15;2.15;;;3.00;94.00;;;;;;5051494;28;20208;-74
2021/01/12 10:02:09;;;;;;;3.38;1.75;;;3.00;94.30;;;;;;5049585;28;20728;-72
2021/01/12 10:04:35;;;;;;;4.55;2.35;;;3.00;94.80;;;;;;5050089;28;20199;-73
2021/01/12 10:07:01;;;;;;;3.20;1.77;;;2.90;95.30;;;;;;5065801;28;20202;-72
2021/01/12 10:09:28;;;;;;;4.05;1.92;;;2.80;95.60;;;;;;5060869;28;20184;-73
2021/01/12 10:11:54;;;;;;;2.65;1.85;;;2.80;95.90;;;;;;5063846;28;20204;-74
2021/01/12 10:14:21;;;;;;;4.18;2.22;;;2.80;96.10;;;;;;5049287;28;20205;-73
2021/01/12 10:16:48;;;;;;;2.85;2.00;;;2.80;96.30;;;;;;5053827;28;20183;-72
2021/01/12 10:19:14;;;;;;;2.30;1.67;;;2.70;96.70;;;;;;5068848;28;20204;-73
2021/01/12 10:21:40;;;;;;;4.25;2.38;;;2.70;97.00;;;;;;5054617;28;20211;-75
2021/01/12 10:24:06;;;;;;;4.97;1.90;;;2.60;97.20;;;;;;5050392;28;20211;-75
2021/01/12 10:26:33;;;;;;;3.65;1.95;;;2.60;97.50;;;;;;5067128;28;20210;-74
2021/01/12 10:28:59;;;;;;;4.00;2.30;;;2.60;97.80;;;;;;5068291;28;20195;-75
2021/01/12 10:31:25;;;;;;;2.97;1.85;;;2.60;98.00;;;;;;5055721;28;20184;-75
2021/01/12 10:33:52;;;;;;;3.67;1.90;;;2.60;98.20;;;;;;5049437;28;20215;-77
2021/01/12 10:36:19;;;;;;;3.92;1.80;;;2.50;98.30;;;;;;5060226;28;20197;-74
2021/01/12 10:38:46;;;;;;;2.72;1.75;;;2.50;98.50;;;;;;5049567;28;20640;-75
2021/01/12 10:41:12;;;;;;;2.85;2.30;;;2.50;98.70;;;;;;5050586;28;20184;-75
2021/01/12 10:43:38;;;;;;;1.90;1.58;;;2.50;98.80;;;;;;5058890;28;20210;-74
2021/01/12 10:46:04;;;;;;;2.20;1.70;;;2.60;98.70;;;;;;5050842;28;20220;-73
2021/01/12 10:48:30;;;;;;;2.50;1.52;;;2.60;98.70;;;;;;5049298;28;20210;-76
2021/01/12 10:50:56;;;;;;;4.23;1.40;;;2.60;98.70;;;;;;5060968;28;20283;-74
2021/01/12 10:53:22;;;;;;;12.40;2.50;;;2.60;98.70;;;;;;5049108;28;20441;-75
2021/01/12 10:55:49;;;;;;;5.53;1.67;;;2.60;98.80;;;;;;5065541;28;20210;-75
2021/01/12 10:58:15;;;;;;;1.20;1.10;;;2.60;98.90;;;;;;5055656;28;20648;-76
2021/01/12 11:00:41;;;;;;;3.87;1.40;;;2.60;98.90;;;;;;5051546;28;20191;-76
2021/01/12 11:03:07;;;;;;;2.00;1.15;;;2.50;99.00;;;;;;5050146;28;20185;-76
2021/01/12 11:05:36;;;;;;;2.63;1.60;;;2.50;99.20;;;;;;5069357;28;20208;-76
2021/01/12 11:08:03;;;;;;;2.80;1.63;;;2.50;99.00;;;;;;5060441;28;20184;-79
2021/01/12 11:10:30;;;;;;;1.77;1.20;;;2.50;99.30;;;;;;5054687;28;20587;-75
2021/01/12 11:13:00;;;;;;;2.90;1.50;;;2.50;99.30;;;;;;5071276;28;20195;-76
2021/01/12 11:15:29;;;;;;;2.78;1.20;;;2.50;99.30;;;;;;5061937;28;20283;-75
2021/01/12 11:17:55;;;;;;;3.50;1.30;;;2.60;99.40;;;;;;5072856;28;20207;-76
2021/01/12 11:20:21;;;;;;;3.60;1.40;;;2.50;99.50;;;;;;5066416;28;20248;-76
2021/01/12 11:22:47;;;;;;;1.13;0.93;;;2.50;99.40;;;;;;5053153;28;20498;-77
2021/01/12 11:25:13;;;;;;;1.70;1.00;;;2.50;99.50;;;;;;5051576;28;20230;-76
2021/01/12 11:27:39;;;;;;;1.20;1.10;;;2.60;99.50;;;;;;5067194;28;20421;-76
2021/01/12 11:30:07;;;;;;;1.95;1.30;;;2.60;99.20;;;;;;5067794;28;20180;-75
2021/01/12 11:32:34;;;;;;;1.40;1.17;;;2.60;99.30;;;;;;5052045;28;20283;-76
2021/01/12 11:35:01;;;;;;;1.08;0.90;;;2.60;99.20;;;;;;5039079;28;20200;-72
2021/01/12 11:37:31;;;;;;;1.35;1.02;;;2.60;99.30;;;;;;5053747;28;20185;-78
2021/01/12 11:39:57;;;;;;;3.38;1.20;;;2.60;99.20;;;;;;5063711;28;20261;-75
2021/01/12 11:42:23;;;;;;;1.42;1.08;;;2.60;99.20;;;;;;5049356;28;20204;-76
2021/01/12 11:44:49;;;;;;;3.23;1.10;;;2.70;99.30;;;;;;5039852;28;20222;-75
2021/01/12 11:47:15;;;;;;;2.00;1.20;;;2.70;99.30;;;;;;5058354;28;20252;-75
2021/01/12 11:49:41;;;;;;;1.05;0.95;;;2.70;99.20;;;;;;5071881;28;20616;-74
2021/01/12 11:52:08;;;;;;;3.47;1.03;;;2.70;99.00;;;;;;5070796;28;20207;-75
2021/01/12 11:54:34;;;;;;;2.80;1.00;;;2.70;99.20;;;;;;5073505;28;20265;-76
2021/01/12 11:57:00;;;;;;;2.35;1.20;;;2.60;99.30;;;;;;5059908;28;20218;-75
2021/01/12 11:59:27;;;;;;;1.37;1.10;;;2.60;99.30;;;;;;5066531;28;20583;-75
2021/01/12 12:01:54;;;;;;;1.93;1.00;;;2.60;99.20;;;;;;5055349;28;20431;-75
2021/01/12 12:04:24;;;;;;;1.70;0.95;;;2.60;99.20;;;;;;5066804;28;20514;-75
2021/01/12 12:07:03;;;;;;;1.13;0.90;;;2.70;99.20;;;;;;5053605;28;20180;-75
2021/01/12 12:09:30;;;;;;;1.45;1.30;;;2.60;99.20;;;;;;5054962;28;20191;-76
2021/01/12 12:11:59;;;;;;;4.18;1.08;;;2.60;99.30;;;;;;5057221;28;20290;-76
2021/01/12 12:14:25;;;;;;;1.65;1.20;;;2.70;99.40;;;;;;5063732;28;20246;-75
2021/01/12 12:16:54;;;;;;;1.02;0.90;;;2.70;99.30;;;;;;5068194;28;20188;-75
2021/01/12 12:19:20;;;;;;;1.85;1.02;;;2.70;99.30;;;;;;5055061;28;20204;-76
2021/01/12 12:21:54;;;;;;;0.93;0.85;;;2.70;99.20;;;;;;5053071;28;20659;-74
2021/01/12 12:24:22;;;;;;;0.70;0.63;;;2.70;99.00;;;;;;5054242;28;20215;-75
2021/01/12 12:26:50;;;;;;;2.03;1.30;;;2.70;99.00;;;;;;5067605;28;20253;-74
2021/01/12 12:29:15;;;;;;;1.55;0.90;;;2.70;99.00;;;;;;5066904;28;20183;-75
2021/01/12 12:31:41;;;;;;;1.30;0.80;;;2.60;99.30;;;;;;5053127;28;20509;-74
2021/01/12 12:34:08;;;;;;;1.47;0.90;;;2.60;99.20;;;;;;5054318;28;20231;-75
2021/01/12 12:36:34;;;;;;;1.20;0.90;;;2.60;99.30;;;;;;5066595;28;20423;-75
2021/01/12 12:39:00;;;;;;;0.98;0.90;;;2.60;99.40;;;;;;5054242;28;20212;-75
2021/01/12 12:41:31;;;;;;;1.37;0.97;;;2.60;99.50;;;;;;5052641;28;20210;-75
2021/01/12 12:43:56;;;;;;;1.42;0.90;;;2.60;99.40;;;;;;5054920;28;20429;-75
2021/01/12 12:46:22;;;;;;;2.70;1.10;;;2.60;99.40;;;;;;5056397;28;20356;-75
2021/01/12 12:48:48;;;;;;;1.97;1.00;;;2.60;99.60;;;;;;5055679;28;20192;-74
2021/01/12 12:51:14;;;;;;;1.00;0.87;;;2.60;99.60;;;;;;5067527;28;20422;-75